createdAt,value
2023-05-14T00:02:14.610Z,99.90
2023-05-14T00:05:16.320Z,99.90
2023-05-14T00:08:18.039Z,99.90
2023-05-14T00:11:19.780Z,99.90
2023-05-14T00:14:21.532Z,99.90
2023-05-14T00:17:23.357Z,99.90
2023-05-14T00:20:25.325Z,99.90
2023-05-14T00:23:27.143Z,99.90
2023-05-14T00:26:28.828Z,99.90
2023-05-14T00:29:30.589Z,99.90
2023-05-14T00:32:32.732Z,99.90
2023-05-14T00:35:35.771Z,99.90
2023-05-14T00:38:37.470Z,99.90
2023-05-14T00:41:39.216Z,99.90
2023-05-14T00:44:40.898Z,99.90
2023-05-14T00:47:42.675Z,99.90
2023-05-14T00:50:44.414Z,99.90
2023-05-14T00:53:47.313Z,99.90
2023-05-14T00:56:49.162Z,99.90
2023-05-14T00:59:50.871Z,99.90
2023-05-14T01:02:53.007Z,99.90
2023-05-14T01:06:15.489Z,99.90
2023-05-14T01:09:32.483Z,99.90
2023-05-14T01:12:44.653Z,99.90
2023-05-14T01:15:48.056Z,99.90
2023-05-14T01:18:52.558Z,99.90
2023-05-14T01:21:54.540Z,99.90
2023-05-14T01:24:56.216Z,99.90
2023-05-14T01:28:18.180Z,99.90
2023-05-14T01:31:28.699Z,99.90
2023-05-14T01:34:31.638Z,99.90
2023-05-14T01:37:33.466Z,99.90
2023-05-14T01:40:36.999Z,99.90
2023-05-14T01:43:39.310Z,99.90
2023-05-14T01:46:41.236Z,99.90
2023-05-14T01:49:43.050Z,99.90
2023-05-14T01:52:44.962Z,99.90
2023-05-14T01:55:46.698Z,99.90
2023-05-14T01:58:48.811Z,99.90
2023-05-14T02:01:50.876Z,99.90
2023-05-14T02:04:52.681Z,99.90
2023-05-14T02:07:54.505Z,99.90
2023-05-14T02:10:56.408Z,99.90
2023-05-14T02:13:59.407Z,99.90
2023-05-14T02:17:01.135Z,99.90
2023-05-14T02:20:03.632Z,99.90
2023-05-14T02:23:05.322Z,99.90
2023-05-14T02:26:08.393Z,99.90
2023-05-14T02:29:10.165Z,99.90
2023-05-14T02:32:11.912Z,99.90
2023-05-14T02:35:14.272Z,99.90
2023-05-14T02:38:15.998Z,99.90
2023-05-14T02:41:17.681Z,99.90
2023-05-14T02:44:19.392Z,99.90
2023-05-14T02:47:21.419Z,99.90
2023-05-14T02:50:23.365Z,99.90
2023-05-14T02:53:25.267Z,99.90
2023-05-14T02:56:27.047Z,99.90
2023-05-14T02:59:30.056Z,99.90
2023-05-14T03:02:32.482Z,99.90
2023-05-14T03:05:34.649Z,99.90
2023-05-14T03:08:36.463Z,99.90
2023-05-14T03:11:38.227Z,99.90
2023-05-14T03:14:40.076Z,99.90
2023-05-14T03:17:41.807Z,99.90
2023-05-14T03:20:43.614Z,99.90
2023-05-14T03:23:45.992Z,99.90
2023-05-14T03:26:47.748Z,99.90
2023-05-14T03:29:49.485Z,99.90
2023-05-14T03:32:51.330Z,99.90
2023-05-14T03:35:53.091Z,99.90
2023-05-14T03:38:56.196Z,99.90
2023-05-14T03:41:58.860Z,99.90
2023-05-14T03:45:00.768Z,99.90
2023-05-14T03:48:02.778Z,99.90
2023-05-14T03:51:05.955Z,99.90
2023-05-14T03:54:07.831Z,99.90
2023-05-14T03:57:09.581Z,99.90
2023-05-14T04:00:12.004Z,99.90
2023-05-14T04:03:19.333Z,99.90
2023-05-14T04:06:21.872Z,99.90
2023-05-14T04:09:23.552Z,99.90
2023-05-14T04:12:26.661Z,99.90
2023-05-14T04:15:28.452Z,99.90
2023-05-14T04:18:30.773Z,99.90
2023-05-14T04:21:32.486Z,99.90
2023-05-14T04:24:34.215Z,99.90
2023-05-14T04:27:35.958Z,99.90
2023-05-14T04:30:37.779Z,99.90
2023-05-14T04:33:39.824Z,99.90
2023-05-14T04:36:41.610Z,99.90
2023-05-14T04:39:43.556Z,99.90
2023-05-14T04:42:45.350Z,99.90
2023-05-14T04:45:47.025Z,99.90
2023-05-14T04:48:49.269Z,99.90
2023-05-14T04:51:51.098Z,99.90
2023-05-14T04:54:52.877Z,99.90
2023-05-14T04:57:54.593Z,99.90
2023-05-14T05:00:56.394Z,99.90
2023-05-14T05:03:58.435Z,99.90
2023-05-14T05:07:00.180Z,99.90
2023-05-14T05:10:02.487Z,99.90
2023-05-14T05:13:04.212Z,99.90
2023-05-14T05:16:06.311Z,99.90
2023-05-14T05:19:08.097Z,99.90
2023-05-14T05:22:10.319Z,99.90
2023-05-14T05:25:12.903Z,99.90
2023-05-14T05:28:14.685Z,99.90
2023-05-14T05:31:19.046Z,99.90
2023-05-14T05:34:21.647Z,99.90
2023-05-14T05:37:23.378Z,99.90
2023-05-14T05:40:25.664Z,99.90
2023-05-14T05:43:28.513Z,99.90
2023-05-14T05:46:30.280Z,99.90
2023-05-14T05:49:32.054Z,99.90
2023-05-14T05:52:33.755Z,99.90
2023-05-14T05:55:35.624Z,99.90
2023-05-14T05:58:37.467Z,99.90
2023-05-14T06:01:40.653Z,99.90
2023-05-14T06:04:42.402Z,99.90
2023-05-14T06:07:44.067Z,99.90
2023-05-14T06:10:47.581Z,99.90
2023-05-14T06:13:49.534Z,99.90
2023-05-14T06:16:52.479Z,99.90
2023-05-14T06:19:54.289Z,99.90
2023-05-14T06:22:55.972Z,99.90
2023-05-14T06:25:57.707Z,99.90
2023-05-14T06:28:59.386Z,99.90
2023-05-14T06:32:04.902Z,99.90
2023-05-14T06:35:07.283Z,99.90
2023-05-14T06:38:09.037Z,99.90
2023-05-14T06:41:10.699Z,99.90
2023-05-14T06:44:12.402Z,99.90
2023-05-14T06:47:14.094Z,99.90
2023-05-14T06:50:15.848Z,99.90
2023-05-14T06:53:17.647Z,99.90
2023-05-14T06:56:19.362Z,99.90
2023-05-14T06:59:22.970Z,99.90
2023-05-14T07:02:24.680Z,99.90
2023-05-14T07:05:26.500Z,99.90
2023-05-14T07:08:28.138Z,99.90
2023-05-14T07:11:30.106Z,99.90
2023-05-14T07:14:31.780Z,99.90
2023-05-14T07:17:33.597Z,99.90
2023-05-14T07:20:35.452Z,99.90
2023-05-14T07:23:38.315Z,99.90
2023-05-14T07:26:40.096Z,99.90
2023-05-14T07:29:42.215Z,99.90
2023-05-14T07:32:43.953Z,99.90
2023-05-14T07:35:46.070Z,99.90
2023-05-14T07:38:47.840Z,99.90
2023-05-14T07:41:50.091Z,99.90
2023-05-14T07:44:53.050Z,99.90
2023-05-14T07:47:54.822Z,99.90
2023-05-14T07:50:56.577Z,99.90
2023-05-14T07:53:58.235Z,99.90
2023-05-14T07:56:59.934Z,99.90
2023-05-14T08:00:01.907Z,99.90
2023-05-14T08:03:03.827Z,99.90
2023-05-14T08:06:06.165Z,99.90
2023-05-14T08:09:08.623Z,99.90
2023-05-14T08:12:10.293Z,99.90
2023-05-14T08:15:12.544Z,99.90
2023-05-14T08:18:14.288Z,99.90
2023-05-14T08:21:15.992Z,99.90
2023-05-14T08:24:18.852Z,99.90
2023-05-14T08:27:22.373Z,99.90
2023-05-14T08:30:24.305Z,99.90
2023-05-14T08:33:26.228Z,99.90
2023-05-14T08:36:27.941Z,99.90
2023-05-14T08:39:29.708Z,99.90
2023-05-14T08:42:32.167Z,99.90
2023-05-14T08:45:35.102Z,99.90
2023-05-14T08:48:37.863Z,99.90
2023-05-14T08:51:40.649Z,99.90
2023-05-14T08:54:42.444Z,99.90
2023-05-14T08:57:44.459Z,99.90
2023-05-14T09:00:46.226Z,99.90
2023-05-14T09:03:48.533Z,99.90
2023-05-14T09:06:53.564Z,99.90
2023-05-14T09:09:55.732Z,99.90
2023-05-14T09:12:57.539Z,99.90
2023-05-14T09:16:00.658Z,99.90
2023-05-14T09:19:03.156Z,99.90
2023-05-14T09:22:09.694Z,99.90
2023-05-14T09:25:14.622Z,99.90
2023-05-14T09:28:18.808Z,99.90
2023-05-14T09:31:20.722Z,99.90
2023-05-14T09:34:26.119Z,99.90
2023-05-14T09:37:28.601Z,99.90
2023-05-14T09:40:30.450Z,99.90
2023-05-14T09:43:32.124Z,99.90
2023-05-14T09:46:33.853Z,99.90
2023-05-14T09:49:35.523Z,99.90
2023-05-14T09:52:39.092Z,99.90
2023-05-14T09:55:41.517Z,99.90
2023-05-14T09:58:43.287Z,99.90
2023-05-14T10:01:46.216Z,99.60
2023-05-14T10:04:53.022Z,98.50
2023-05-14T10:07:58.427Z,94.20
2023-05-14T10:11:06.159Z,98.00
2023-05-14T10:14:19.089Z,95.20
2023-05-14T10:17:24.990Z,90.60
2023-05-14T10:20:27.703Z,94.30
2023-05-14T10:23:30.581Z,92.30
2023-05-14T10:26:33.269Z,92.20
2023-05-14T10:29:36.489Z,94.80
2023-05-14T10:32:38.518Z,92.40
2023-05-14T10:36:09.949Z,95.50
2023-05-14T10:39:11.618Z,91.90
2023-05-14T10:42:21.984Z,91.10
2023-05-14T10:45:24.083Z,91.30
2023-05-14T10:48:26.541Z,86.80
2023-05-14T10:51:28.264Z,92.00
2023-05-14T10:54:29.991Z,84.80
2023-05-14T10:57:32.585Z,89.90
2023-05-14T11:00:35.710Z,89.30
2023-05-14T11:03:45.815Z,85.00
2023-05-14T11:06:47.601Z,80.90
2023-05-14T11:09:50.637Z,82.50
2023-05-14T11:12:53.568Z,80.60
2023-05-14T11:15:56.640Z,85.90
2023-05-14T11:19:03.537Z,91.10
2023-05-14T11:22:05.590Z,86.10
2023-05-14T11:25:08.605Z,88.30
2023-05-14T11:28:10.412Z,91.50
2023-05-14T11:31:12.143Z,85.50
2023-05-14T11:34:14.101Z,90.10
2023-05-14T11:37:16.739Z,89.40
2023-05-14T11:40:18.798Z,85.80
2023-05-14T11:43:23.485Z,79.80
2023-05-14T11:46:26.072Z,84.60
2023-05-14T11:49:31.798Z,89.80
2023-05-14T11:52:39.167Z,85.20
2023-05-14T11:55:40.838Z,83.70
2023-05-14T11:58:48.476Z,90.00
2023-05-14T12:01:51.710Z,91.10
2023-05-14T12:04:53.786Z,88.70
2023-05-14T12:07:56.191Z,90.50
2023-05-14T12:11:01.517Z,85.50
2023-05-14T12:14:11.311Z,90.80
2023-05-14T12:17:14.972Z,89.20
2023-05-14T12:20:17.353Z,88.30
2023-05-14T12:23:26.959Z,88.30
2023-05-14T12:26:32.215Z,90.20
2023-05-14T12:29:38.977Z,85.40
2023-05-14T12:32:41.442Z,90.30
2023-05-14T12:35:43.245Z,86.50
2023-05-14T12:38:44.912Z,90.20
2023-05-14T12:41:46.754Z,90.10
2023-05-14T12:44:48.445Z,89.50
2023-05-14T12:47:51.094Z,93.30
2023-05-14T12:50:52.959Z,89.10
2023-05-14T12:53:54.871Z,89.70
2023-05-14T12:56:56.558Z,92.60
2023-05-14T12:59:58.298Z,91.90
2023-05-14T13:03:00.018Z,90.30
2023-05-14T13:06:01.792Z,84.00
2023-05-14T13:09:04.108Z,87.20
2023-05-14T13:12:06.334Z,88.70
2023-05-14T13:15:08.671Z,83.40
2023-05-14T13:18:10.485Z,85.00
2023-05-14T13:21:12.632Z,85.20
2023-05-14T13:24:14.310Z,79.70
2023-05-14T13:27:16.089Z,81.90
2023-05-14T13:30:18.474Z,78.20
2023-05-14T13:33:20.257Z,85.50
2023-05-14T13:36:22.005Z,81.30
2023-05-14T13:39:26.902Z,84.10
2023-05-14T13:42:28.650Z,80.70
2023-05-14T13:45:30.441Z,83.70
2023-05-14T13:48:32.377Z,76.70
2023-05-14T13:51:34.168Z,75.70
2023-05-14T13:54:35.834Z,82.60
2023-05-14T13:57:39.255Z,84.20
2023-05-14T14:00:41.135Z,81.40
2023-05-14T14:03:42.794Z,84.20
2023-05-14T14:06:44.439Z,82.10
2023-05-14T14:09:46.133Z,80.60
2023-05-14T14:12:48.244Z,81.50
2023-05-14T14:15:50.305Z,78.70
2023-05-14T14:18:52.286Z,80.10
2023-05-14T14:21:54.017Z,76.90
2023-05-14T14:24:55.687Z,78.10
2023-05-14T14:27:57.453Z,77.50
2023-05-14T14:30:59.144Z,73.70
2023-05-14T14:34:00.834Z,74.40
2023-05-14T14:37:02.809Z,73.60
2023-05-14T14:40:07.221Z,72.30
2023-05-14T14:43:09.016Z,76.30
2023-05-14T14:46:10.987Z,69.00
2023-05-14T14:49:12.835Z,67.70
2023-05-14T14:52:14.522Z,69.90
2023-05-14T14:55:16.174Z,74.50
2023-05-14T14:58:19.403Z,75.40
2023-05-14T15:01:22.710Z,78.50
2023-05-14T15:04:24.574Z,72.50
2023-05-14T15:07:26.289Z,81.10
2023-05-14T15:10:28.833Z,77.20
2023-05-14T15:13:30.602Z,79.60
2023-05-14T15:16:32.308Z,88.10
2023-05-14T15:19:34.049Z,78.00
2023-05-14T15:22:35.734Z,77.20
2023-05-14T15:25:37.429Z,81.30
2023-05-14T15:28:39.125Z,80.20
2023-05-14T15:31:41.216Z,80.20
2023-05-14T15:34:43.135Z,77.00
2023-05-14T15:37:45.062Z,71.80
2023-05-14T15:40:46.896Z,75.60
2023-05-14T15:43:48.669Z,71.10
2023-05-14T15:46:50.754Z,73.60
2023-05-14T15:49:52.770Z,77.60
2023-05-14T15:52:55.523Z,79.00
2023-05-14T15:55:57.212Z,71.70
2023-05-14T15:58:58.936Z,64.70
2023-05-14T16:02:00.663Z,66.20
2023-05-14T16:05:02.752Z,66.10
2023-05-14T16:08:04.505Z,69.90
2023-05-14T16:11:07.707Z,69.80
2023-05-14T16:14:09.553Z,70.90
2023-05-14T16:17:11.475Z,66.20
2023-05-14T16:20:13.187Z,73.60
2023-05-14T16:23:14.825Z,68.00
2023-05-14T16:26:16.552Z,70.30
2023-05-14T16:29:18.328Z,73.70
2023-05-14T16:32:20.250Z,75.30
2023-05-14T16:35:21.973Z,73.80
2023-05-14T16:38:24.577Z,71.80
2023-05-14T16:41:26.261Z,70.00
2023-05-14T16:44:27.913Z,70.00
2023-05-14T16:47:31.188Z,74.50
2023-05-14T16:50:32.963Z,73.10
2023-05-14T16:53:34.615Z,76.90
2023-05-14T16:56:36.579Z,74.80
2023-05-14T16:59:38.280Z,74.90
2023-05-14T17:02:40.017Z,78.10
2023-05-14T17:05:41.772Z,82.20
2023-05-14T17:08:43.462Z,76.80
2023-05-14T17:11:45.195Z,79.60
2023-05-14T17:14:46.843Z,79.20
2023-05-14T17:17:48.534Z,75.70
2023-05-14T17:20:51.019Z,75.80
2023-05-14T17:23:52.725Z,74.10
2023-05-14T17:26:55.524Z,74.50
2023-05-14T17:29:57.296Z,78.10
2023-05-14T17:32:59.115Z,74.40
2023-05-14T17:36:01.078Z,74.90
2023-05-14T17:39:02.758Z,76.10
2023-05-14T17:42:04.792Z,78.10
2023-05-14T17:45:07.236Z,80.40
2023-05-14T17:48:08.985Z,78.40
2023-05-14T17:51:10.674Z,85.40
2023-05-14T17:54:12.357Z,90.50
2023-05-14T17:57:14.175Z,91.20
2023-05-14T18:00:16.093Z,89.70
2023-05-14T18:03:20.117Z,88.90
2023-05-14T18:06:22.087Z,90.60
2023-05-14T18:09:23.737Z,91.70
2023-05-14T18:12:26.538Z,90.40
2023-05-14T18:15:28.258Z,90.80
2023-05-14T18:18:30.756Z,92.40
2023-05-14T18:21:32.491Z,92.50
2023-05-14T18:24:34.218Z,95.50
2023-05-14T18:27:39.419Z,96.20
2023-05-14T18:30:41.291Z,97.10
2023-05-14T18:33:43.105Z,96.90
2023-05-14T18:36:44.826Z,99.30
2023-05-14T18:39:46.479Z,98.30
2023-05-14T18:42:48.300Z,99.90
2023-05-14T18:45:50.193Z,99.80
2023-05-14T18:48:51.950Z,99.50
2023-05-14T18:51:53.675Z,97.50
2023-05-14T18:54:55.376Z,99.90
2023-05-14T18:57:57.452Z,98.80
2023-05-14T19:00:59.169Z,99.90
2023-05-14T19:04:03.123Z,99.60
2023-05-14T19:07:06.986Z,99.90
2023-05-14T19:10:09.814Z,99.90
2023-05-14T19:13:11.662Z,99.90
2023-05-14T19:16:13.644Z,99.90
2023-05-14T19:19:15.399Z,99.90
2023-05-14T19:22:17.371Z,99.90
2023-05-14T19:25:19.021Z,99.90
2023-05-14T19:28:21.164Z,99.90
2023-05-14T19:31:22.856Z,99.90
2023-05-14T19:34:24.554Z,99.90
2023-05-14T19:37:26.268Z,99.90
2023-05-14T19:40:28.738Z,99.90
2023-05-14T19:43:30.471Z,99.90
2023-05-14T19:46:32.178Z,99.90
2023-05-14T19:49:33.905Z,99.90
2023-05-14T19:52:35.574Z,99.90
2023-05-14T19:55:37.741Z,99.90
2023-05-14T19:58:39.409Z,99.90
2023-05-14T20:01:41.696Z,99.90
2023-05-14T20:04:45.835Z,99.90
2023-05-14T20:07:48.780Z,99.90
2023-05-14T20:10:50.646Z,99.90
2023-05-14T20:13:52.303Z,99.90
2023-05-14T20:16:54.031Z,99.90
2023-05-14T20:19:56.316Z,99.90
2023-05-14T20:22:58.132Z,99.90
2023-05-14T20:26:01.712Z,99.90
2023-05-14T20:29:03.952Z,99.90
2023-05-14T20:32:06.189Z,99.90
2023-05-14T20:35:08.087Z,99.90
2023-05-14T20:38:11.246Z,99.90
2023-05-14T20:41:13.002Z,99.90
2023-05-14T20:44:14.685Z,99.90
2023-05-14T20:47:24.215Z,99.90
2023-05-14T20:50:27.741Z,99.90
2023-05-14T20:53:29.430Z,99.90
2023-05-14T20:56:31.197Z,99.90
2023-05-14T20:59:32.856Z,99.90
2023-05-14T21:02:34.862Z,99.90
2023-05-14T21:05:36.608Z,99.90
2023-05-14T21:08:40.251Z,99.90
2023-05-14T21:11:41.900Z,99.90
2023-05-14T21:14:43.590Z,99.90
2023-05-14T21:17:45.818Z,99.90
2023-05-14T21:20:47.539Z,99.90
2023-05-14T21:23:49.732Z,99.90
2023-05-14T21:26:53.481Z,99.90
2023-05-14T21:29:55.347Z,99.90
2023-05-14T21:32:57.131Z,99.90
2023-05-14T21:35:59.051Z,99.90
2023-05-14T21:39:00.901Z,99.90
2023-05-14T21:42:02.600Z,99.90
2023-05-14T21:45:04.702Z,99.90
2023-05-14T21:48:06.853Z,99.90
2023-05-14T21:51:08.608Z,99.90
2023-05-14T21:54:10.390Z,99.90
2023-05-14T21:57:12.115Z,99.90
2023-05-14T22:00:18.382Z,99.90
2023-05-14T22:03:20.133Z,99.90
2023-05-14T22:06:21.874Z,99.90
2023-05-14T22:09:23.534Z,99.90
2023-05-14T22:12:26.060Z,99.90
2023-05-14T22:15:27.847Z,99.90
2023-05-14T22:18:29.672Z,99.90
2023-05-14T22:21:31.337Z,99.90
2023-05-14T22:24:33.139Z,99.90
2023-05-14T22:27:34.810Z,99.90
2023-05-14T22:30:36.518Z,99.90
2023-05-14T22:33:38.226Z,99.90
2023-05-14T22:36:39.905Z,99.90
2023-05-14T22:39:41.793Z,99.90
2023-05-14T22:42:43.602Z,99.90
2023-05-14T22:45:45.314Z,99.90
2023-05-14T22:48:48.998Z,99.90
2023-05-14T22:51:54.113Z,99.90
2023-05-14T22:54:55.776Z,99.90
2023-05-14T22:57:57.461Z,99.90
2023-05-14T23:00:59.195Z,99.90
2023-05-14T23:04:00.893Z,99.90
2023-05-14T23:07:02.593Z,99.90
2023-05-14T23:10:04.700Z,99.90
2023-05-14T23:13:06.394Z,99.90
2023-05-14T23:16:08.257Z,99.90
2023-05-14T23:19:10.191Z,99.90
2023-05-14T23:22:12.503Z,99.90
2023-05-14T23:25:14.215Z,99.90
2023-05-14T23:28:16.730Z,99.90
2023-05-14T23:31:18.528Z,99.90
2023-05-14T23:34:21.909Z,99.90
2023-05-14T23:37:23.744Z,99.90
2023-05-14T23:40:25.518Z,99.90
2023-05-14T23:43:27.218Z,99.90
2023-05-14T23:46:29.363Z,99.90
2023-05-14T23:49:31.231Z,99.90
2023-05-14T23:52:33.157Z,99.90
